Time;durP1;ratioP1;P1;durP2;ratioP2;P2;SDS_P1;SDS_P2;PMS_P1;PMS_P2;Temp;Humidity;BMP_temperature;BMP_pressure;BME280_temperature;BME280_humidity;BME280_pressure;Samples;Min_cycle;Max_cycle;Signal;HPM_P1;HPM_P2
2023/06/20 00:01:21;;;;;;;1.80;1.80;;;;;;;;;;5227348;22;20022;-56
2023/06/20 00:03:41;;;;;;;2.28;2.17;;;;;;;;;;5227411;22;20050;-56
2023/06/20 00:06:01;;;;;;;2.10;2.00;;;;;;;;;;5227515;22;20034;-56
2023/06/20 00:08:22;;;;;;;1.88;1.77;;;;;;;;;;5227567;22;20030;-57
2023/06/20 00:10:42;;;;;;;4.32;2.10;;;;;;;;;;5227459;22;20034;-57
2023/06/20 00:13:02;;;;;;;3.42;2.83;;;;;;;;;;5227489;22;20030;-57
2023/06/20 00:15:25;;;;;;;2.65;2.55;;;;;;;;;;5227457;22;20025;-57
2023/06/20 00:17:46;;;;;;;2.65;2.55;;;;;;;;;;5227474;22;20022;-57
2023/06/20 00:20:08;;;;;;;2.38;2.38;;;;;;;;;;5227549;22;20064;-57
2023/06/20 00:22:28;;;;;;;2.33;2.33;;;;;;;;;;5204265;22;20250;-57
2023/06/20 00:24:48;;;;;;;1.77;1.67;;;;;;;;;;5227349;22;20468;-57
2023/06/20 00:27:08;;;;;;;2.88;2.67;;;;;;;;;;5227454;22;20026;-57
2023/06/20 00:29:29;;;;;;;8.80;2.50;;;;;;;;;;5227358;22;20041;-56
2023/06/20 00:31:50;;;;;;;3.08;2.97;;;;;;;;;;5227307;22;20054;-56
2023/06/20 00:34:10;;;;;;;4.75;3.75;;;;;;;;;;5227344;22;20388;-56
2023/06/20 00:36:31;;;;;;;3.25;3.10;;;;;;;;;;5227380;22;20337;-56
2023/06/20 00:38:51;;;;;;;2.70;2.60;;;;;;;;;;5227112;22;20026;-56
2023/06/20 00:41:11;;;;;;;3.28;3.17;;;;;;;;;;5227118;22;20022;-56
2023/06/20 00:43:31;;;;;;;3.28;3.03;;;;;;;;;;5227361;22;20022;-57
2023/06/20 00:45:51;;;;;;;4.25;2.78;;;;;;;;;;5227298;22;20025;-56
2023/06/20 00:48:12;;;;;;;2.75;2.65;;;;;;;;;;5227280;22;20210;-56
2023/06/20 00:50:33;;;;;;;3.00;2.72;;;;;;;;;;5227360;22;20087;-56
2023/06/20 00:52:58;;;;;;;2.50;2.40;;;;;;;;;;5227210;22;20023;-56
2023/06/20 00:55:18;;;;;;;2.15;2.10;;;;;;;;;;5227195;22;20050;-57
2023/06/20 00:57:42;;;;;;;3.15;3.00;;;;;;;;;;5227180;22;20329;-57
2023/06/20 01:00:11;;;;;;;3.17;3.03;;;;;;;;;;5227396;22;20116;-57
2023/06/20 01:02:31;;;;;;;3.10;3.00;;;;;;;;;;5227298;22;20026;-57
2023/06/20 01:04:51;;;;;;;3.47;3.38;;;;;;;;;;5227324;22;20022;-56
2023/06/20 01:07:30;;;;;;;2.42;2.40;;;;;;;;;;5227277;22;20026;-56
2023/06/20 01:10:09;;;;;;;2.72;2.72;;;;;;;;;;5227352;22;20087;-56
2023/06/20 01:12:47;;;;;;;2.83;2.55;;;;;;;;;;5227168;22;20022;-56
2023/06/20 01:15:14;;;;;;;3.42;3.33;;;;;;;;;;5227215;22;20045;-56
2023/06/20 01:17:35;;;;;;;3.03;2.92;;;;;;;;;;5227163;22;20023;-56
2023/06/20 01:20:12;;;;;;;3.28;3.08;;;;;;;;;;5227148;22;20041;-57
2023/06/20 01:22:36;;;;;;;3.47;3.17;;;;;;;;;;5227192;22;20067;-56
2023/06/20 01:24:58;;;;;;;2.80;2.58;;;;;;;;;;5227260;22;20210;-56
2023/06/20 01:27:39;;;;;;;3.10;3.00;;;;;;;;;;5227169;22;20026;-56
2023/06/20 01:30:02;;;;;;;2.30;2.30;;;;;;;;;;5227131;22;20030;-56
2023/06/20 01:32:23;;;;;;;5.40;2.97;;;;;;;;;;5227028;22;20053;-56
2023/06/20 01:35:01;;;;;;;2.80;2.70;;;;;;;;;;5227188;22;20022;-56
2023/06/20 01:37:23;;;;;;;3.00;2.90;;;;;;;;;;5227155;22;20080;-57
2023/06/20 01:39:50;;;;;;;2.90;2.80;;;;;;;;;;5227042;22;20030;-56
2023/06/20 01:42:11;;;;;;;3.00;2.78;;;;;;;;;;5227029;22;20641;-56
2023/06/20 01:44:33;;;;;;;2.47;2.47;;;;;;;;;;5227049;22;20064;-57
2023/06/20 01:46:55;;;;;;;3.72;2.97;;;;;;;;;;5227092;22;20026;-57
2023/06/20 01:49:17;;;;;;;3.33;3.22;;;;;;;;;;5226942;22;20073;-56
2023/06/20 01:51:38;;;;;;;3.15;3.05;;;;;;;;;;5226774;22;20095;-57
2023/06/20 01:54:00;;;;;;;2.90;2.80;;;;;;;;;;5227035;22;20368;-56
2023/06/20 01:56:21;;;;;;;2.97;2.33;;;;;;;;;;5227066;22;20410;-56
2023/06/20 01:58:42;;;;;;;3.15;2.95;;;;;;;;;;5227008;22;20758;-56
2023/06/20 02:01:05;;;;;;;2.92;2.72;;;;;;;;;;5227100;22;20342;-57
2023/06/20 02:03:27;;;;;;;3.65;3.45;;;;;;;;;;5227012;22;20066;-56
2023/06/20 02:05:48;;;;;;;3.40;3.20;;;;;;;;;;5226870;22;20041;-56
2023/06/20 02:08:10;;;;;;;3.72;3.47;;;;;;;;;;5226882;22;20022;-57
2023/06/20 02:10:30;;;;;;;3.63;3.53;;;;;;;;;;5226951;22;20034;-56
2023/06/20 02:12:52;;;;;;;2.88;2.78;;;;;;;;;;5226827;22;20206;-56
2023/06/20 02:15:12;;;;;;;2.60;2.60;;;;;;;;;;5226958;22;20022;-56
2023/06/20 02:17:33;;;;;;;3.47;3.38;;;;;;;;;;5226970;22;20021;-56
2023/06/20 02:19:54;;;;;;;3.03;2.92;;;;;;;;;;5226837;22;20060;-57
2023/06/20 02:22:15;;;;;;;2.65;2.55;;;;;;;;;;5226897;22;20473;-56
2023/06/20 02:24:37;;;;;;;4.05;3.65;;;;;;;;;;5226900;22;20337;-56
2023/06/20 02:26:59;;;;;;;3.60;3.38;;;;;;;;;;5226838;22;20345;-56
2023/06/20 02:29:20;;;;;;;3.10;3.00;;;;;;;;;;5226652;22;20026;-56
2023/06/20 02:31:44;;;;;;;4.10;3.78;;;;;;;;;;5226714;22;20022;-57
2023/06/20 02:34:05;;;;;;;3.67;3.50;;;;;;;;;;5226786;22;20069;-57
2023/06/20 02:36:28;;;;;;;3.60;3.42;;;;;;;;;;5226793;22;20026;-56
2023/06/20 02:38:48;;;;;;;3.30;3.20;;;;;;;;;;5226726;22;20054;-56
2023/06/20 02:41:09;;;;;;;3.80;3.67;;;;;;;;;;5226673;22;20085;-56
2023/06/20 02:43:29;;;;;;;3.75;3.65;;;;;;;;;;5226604;22;20361;-56
2023/06/20 02:45:54;;;;;;;3.88;3.50;;;;;;;;;;5226642;22;20025;-56
2023/06/20 02:48:27;;;;;;;4.20;3.90;;;;;;;;;;5226656;22;20064;-56
2023/06/20 02:50:47;;;;;;;3.92;3.83;;;;;;;;;;5226673;22;20026;-56
2023/06/20 02:53:08;;;;;;;4.03;3.83;;;;;;;;;;5226465;22;20037;-56
2023/06/20 02:55:35;;;;;;;2.97;2.95;;;;;;;;;;5226574;22;20030;-56
2023/06/20 02:57:59;;;;;;;3.97;3.88;;;;;;;;;;5226569;22;20022;-56
2023/06/20 03:00:20;;;;;;;4.18;3.08;;;;;;;;;;5226501;22;20061;-56
2023/06/20 03:02:44;;;;;;;3.75;3.53;;;;;;;;;;5226641;22;20025;-57
2023/06/20 03:05:07;;;;;;;3.38;3.28;;;;;;;;;;5227719;22;20022;-56
2023/06/20 03:07:33;;;;;;;3.95;3.85;;;;;;;;;;5227847;22;20026;-56
2023/06/20 03:09:54;;;;;;;3.63;3.53;;;;;;;;;;5227686;22;20021;-56
2023/06/20 03:12:14;;;;;;;3.80;3.70;;;;;;;;;;5227494;22;20050;-56
2023/06/20 03:14:35;;;;;;;3.25;3.15;;;;;;;;;;5227665;22;20026;-56
2023/06/20 03:16:55;;;;;;;3.78;3.60;;;;;;;;;;5227614;22;20022;-56
2023/06/20 03:19:16;;;;;;;3.05;2.90;;;;;;;;;;5227635;22;20054;-56
2023/06/20 03:21:38;;;;;;;4.38;4.05;;;;;;;;;;5227615;22;20056;-56
2023/06/20 03:23:58;;;;;;;5.05;4.78;;;;;;;;;;5227740;22;20329;-56
2023/06/20 03:26:19;;;;;;;3.60;3.50;;;;;;;;;;5227619;22;20064;-57
2023/06/20 03:28:40;;;;;;;4.13;4.03;;;;;;;;;;5227640;22;20061;-56
2023/06/20 03:31:01;;;;;;;3.92;3.83;;;;;;;;;;5227668;22;20071;-57
2023/06/20 03:33:22;;;;;;;4.78;4.60;;;;;;;;;;5227550;22;20071;-56
2023/06/20 03:35:42;;;;;;;3.97;3.83;;;;;;;;;;5227537;22;20026;-56
2023/06/20 03:38:03;;;;;;;4.45;4.25;;;;;;;;;;5227506;22;20261;-56
2023/06/20 03:40:23;;;;;;;3.83;3.58;;;;;;;;;;5227488;22;20026;-56
2023/06/20 03:42:43;;;;;;;3.67;3.58;;;;;;;;;;5227476;22;20062;-57
2023/06/20 03:45:03;;;;;;;3.80;3.60;;;;;;;;;;5227506;22;20360;-56
2023/06/20 03:47:24;;;;;;;3.45;3.22;;;;;;;;;;5227547;22;20022;-56
2023/06/20 03:49:44;;;;;;;3.63;3.42;;;;;;;;;;5227516;22;20245;-56
2023/06/20 03:52:05;;;;;;;3.95;3.72;;;;;;;;;;5227556;22;20360;-56
2023/06/20 03:54:25;;;;;;;3.10;3.00;;;;;;;;;;5227591;22;20026;-56
2023/06/20 03:56:45;;;;;;;3.63;3.53;;;;;;;;;;5227589;22;20025;-56
2023/06/20 03:59:05;;;;;;;3.78;3.58;;;;;;;;;;5227538;22;20026;-56
2023/06/20 04:01:25;;;;;;;3.38;3.20;;;;;;;;;;5227620;22;20022;-56
2023/06/20 04:03:46;;;;;;;4.45;4.35;;;;;;;;;;5227684;22;20026;-56
2023/06/20 04:06:07;;;;;;;5.13;3.83;;;;;;;;;;5227456;22;20068;-56
2023/06/20 04:08:30;;;;;;;4.95;4.60;;;;;;;;;;5227443;22;20022;-56
2023/06/20 04:10:51;;;;;;;3.90;3.80;;;;;;;;;;5227435;22;20253;-56
2023/06/20 04:13:11;;;;;;;4.15;3.90;;;;;;;;;;5227287;22;20022;-56
2023/06/20 04:15:31;;;;;;;3.88;3.78;;;;;;;;;;5227413;22;20058;-56
2023/06/20 04:17:52;;;;;;;4.05;3.78;;;;;;;;;;5227537;22;20257;-56
2023/06/20 04:20:13;;;;;;;3.92;3.80;;;;;;;;;;5227411;22;20074;-56
2023/06/20 04:22:33;;;;;;;4.38;4.18;;;;;;;;;;5227351;22;20069;-56
2023/06/20 04:24:56;;;;;;;4.18;4.00;;;;;;;;;;5227496;22;20213;-56
2023/06/20 04:27:18;;;;;;;4.65;4.43;;;;;;;;;;5227409;22;20034;-57
2023/06/20 04:29:38;;;;;;;4.25;3.95;;;;;;;;;;5227382;22;20029;-56
2023/06/20 04:31:58;;;;;;;4.82;4.72;;;;;;;;;;5227373;22;20218;-56
2023/06/20 04:34:23;;;;;;;4.20;4.10;;;;;;;;;;5227272;22;20304;-56
2023/06/20 04:36:43;;;;;;;4.55;4.43;;;;;;;;;;5227316;22;20095;-56
2023/06/20 04:39:04;;;;;;;4.28;3.95;;;;;;;;;;5227332;22;20080;-56
2023/06/20 04:41:24;;;;;;;4.55;2.63;;;;;;;;;;5227365;22;20023;-56
2023/06/20 04:43:45;;;;;;;4.10;3.90;;;;;;;;;;5227277;22;20027;-56
2023/06/20 04:46:06;;;;;;;4.43;4.32;;;;;;;;;;5227295;22;20064;-56
2023/06/20 04:48:35;;;;;;;4.25;3.95;;;;;;;;;;5227397;22;20022;-56
2023/06/20 04:50:56;;;;;;;4.95;4.65;;;;;;;;;;5227297;22;20049;-56
2023/06/20 04:53:17;;;;;;;5.75;4.97;;;;;;;;;;5227096;22;20026;-56
2023/06/20 04:55:38;;;;;;;4.75;4.32;;;;;;;;;;5227226;22;20374;-56
2023/06/20 04:57:58;;;;;;;4.80;4.47;;;;;;;;;;5227337;22;20026;-56
2023/06/20 05:00:19;;;;;;;4.60;4.30;;;;;;;;;;5227197;22;20021;-56
2023/06/20 05:02:44;;;;;;;3.40;3.28;;;;;;;;;;5227183;22;20022;-57
2023/06/20 05:05:04;;;;;;;4.63;4.38;;;;;;;;;;5227284;22;20095;-56
2023/06/20 05:07:25;;;;;;;3.65;3.20;;;;;;;;;;5227228;22;20022;-56
2023/06/20 05:09:45;;;;;;;4.72;4.32;;;;;;;;;;5227268;22;20086;-56
2023/06/20 05:12:05;;;;;;;3.45;3.20;;;;;;;;;;5227141;22;20022;-57
2023/06/20 05:14:26;;;;;;;3.40;3.30;;;;;;;;;;5227190;22;20033;-57
2023/06/20 05:16:46;;;;;;;3.42;3.33;;;;;;;;;;5227088;22;20021;-57
2023/06/20 05:19:07;;;;;;;4.72;4.53;;;;;;;;;;5227244;22;20026;-57
2023/06/20 05:21:27;;;;;;;4.85;4.55;;;;;;;;;;5226115;22;20211;-57
2023/06/20 05:23:47;;;;;;;4.85;4.75;;;;;;;;;;5227152;22;20021;-57
2023/06/20 05:26:08;;;;;;;4.78;4.57;;;;;;;;;;5226720;22;20226;-57
2023/06/20 05:28:28;;;;;;;4.18;3.92;;;;;;;;;;5227224;22;20350;-57
2023/06/20 05:30:48;;;;;;;10.60;4.60;;;;;;;;;;5227111;22;20026;-60
2023/06/20 05:33:09;;;;;;;17.52;5.55;;;;;;;;;;5227037;22;20046;-60
2023/06/20 05:35:30;;;;;;;9.15;4.53;;;;;;;;;;5227196;22;20046;-60
2023/06/20 05:37:51;;;;;;;6.88;4.95;;;;;;;;;;5227135;22;20060;-60
2023/06/20 05:40:11;;;;;;;6.10;4.88;;;;;;;;;;5227039;22;20337;-60
2023/06/20 05:42:32;;;;;;;5.68;4.57;;;;;;;;;;5227098;22;20026;-60
2023/06/20 05:45:31;;;;;;;8.27;5.10;;;;;;;;;;5235643;22;20063;-60
2023/06/20 05:47:51;;;;;;;5.70;5.28;;;;;;;;;;5227134;22;20341;-60
2023/06/20 05:50:12;;;;;;;5.45;5.13;;;;;;;;;;5227066;22;20050;-60
2023/06/20 05:52:32;;;;;;;5.15;4.82;;;;;;;;;;5226956;22;20329;-60
2023/06/20 05:54:53;;;;;;;4.93;4.55;;;;;;;;;;5227174;22;20041;-60
2023/06/20 05:57:14;;;;;;;3.67;3.42;;;;;;;;;;5226945;22;20213;-60
2023/06/20 05:59:34;;;;;;;4.53;4.18;;;;;;;;;;5226956;22;20026;-60
2023/06/20 06:01:55;;;;;;;4.38;4.18;;;;;;;;;;5225330;22;20057;-60
2023/06/20 06:04:18;;;;;;;6.18;4.55;;;;;;;;;;5226897;22;20049;-60
2023/06/20 06:06:39;;;;;;;3.97;3.33;;;;;;;;;;5226905;22;20075;-60
2023/06/20 06:09:00;;;;;;;3.17;3.08;;;;;;;;;;5226956;22;20054;-60
2023/06/20 06:11:20;;;;;;;5.05;4.65;;;;;;;;;;5227067;22;20333;-60
2023/06/20 06:13:40;;;;;;;3.78;3.47;;;;;;;;;;5226838;22;20060;-60
2023/06/20 06:16:01;;;;;;;4.75;3.40;;;;;;;;;;5226888;22;20082;-60
2023/06/20 06:18:21;;;;;;;3.60;3.47;;;;;;;;;;5226959;22;20075;-61
2023/06/20 06:20:44;;;;;;;3.35;3.15;;;;;;;;;;5226839;22;20075;-60
2023/06/20 06:23:06;;;;;;;4.47;3.42;;;;;;;;;;5226860;22;20025;-60
2023/06/20 06:25:26;;;;;;;3.38;3.22;;;;;;;;;;5226889;22;20329;-60
2023/06/20 06:27:46;;;;;;;2.88;2.65;;;;;;;;;;5226773;22;20337;-60
2023/06/20 06:30:08;;;;;;;3.22;2.97;;;;;;;;;;5226702;22;20057;-60
2023/06/20 06:32:28;;;;;;;2.78;2.47;;;;;;;;;;5226679;22;20034;-60
2023/06/20 06:34:49;;;;;;;2.60;2.50;;;;;;;;;;5226783;22;20058;-60
2023/06/20 06:37:10;;;;;;;2.90;2.65;;;;;;;;;;5226740;22;20027;-60
2023/06/20 06:39:30;;;;;;;2.58;2.47;;;;;;;;;;5227839;22;20026;-60
2023/06/20 06:41:50;;;;;;;3.08;2.47;;;;;;;;;;5228009;22;20034;-60
2023/06/20 06:44:10;;;;;;;5.07;2.90;;;;;;;;;;5227804;22;20083;-60
2023/06/20 06:46:30;;;;;;;3.83;2.53;;;;;;;;;;5227776;22;20026;-60
2023/06/20 06:48:50;;;;;;;2.63;2.53;;;;;;;;;;5227892;22;20071;-60
2023/06/20 06:51:10;;;;;;;2.53;2.42;;;;;;;;;;5227797;22;20029;-60
2023/06/20 06:53:31;;;;;;;1.95;1.85;;;;;;;;;;5227614;22;20022;-60
2023/06/20 06:55:51;;;;;;;2.53;1.60;;;;;;;;;;5227746;22;20214;-60
2023/06/20 06:58:11;;;;;;;1.92;1.92;;;;;;;;;;5227781;22;20022;-60
2023/06/20 07:00:32;;;;;;;3.92;2.22;;;;;;;;;;5227681;22;20050;-60
2023/06/20 07:02:53;;;;;;;2.83;2.63;;;;;;;;;;5202855;22;20127;-60
2023/06/20 07:05:13;;;;;;;1.52;1.48;;;;;;;;;;5227748;22;20029;-60
2023/06/20 07:07:33;;;;;;;2.35;2.15;;;;;;;;;;5227700;22;20026;-60
2023/06/20 07:09:54;;;;;;;2.20;2.00;;;;;;;;;;5227654;22;20041;-60
2023/06/20 07:12:14;;;;;;;2.72;2.50;;;;;;;;;;5227760;22;20229;-60
2023/06/20 07:14:34;;;;;;;2.85;2.65;;;;;;;;;;5227674;22;20025;-60
2023/06/20 07:16:55;;;;;;;5.80;1.80;;;;;;;;;;5227648;22;20025;-60
2023/06/20 07:19:26;;;;;;;1.95;1.95;;;;;;;;;;5227641;22;20065;-60
2023/06/20 07:21:46;;;;;;;2.15;2.15;;;;;;;;;;5227665;22;20025;-60
2023/06/20 07:24:07;;;;;;;4.53;2.15;;;;;;;;;;5227651;22;20060;-60
2023/06/20 07:26:27;;;;;;;1.73;1.60;;;;;;;;;;5227644;22;20021;-60
2023/06/20 07:28:48;;;;;;;3.00;2.30;;;;;;;;;;5227657;22;20342;-60
2023/06/20 07:31:09;;;;;;;2.10;2.00;;;;;;;;;;5227600;22;20328;-60
2023/06/20 07:33:30;;;;;;;2.78;2.58;;;;;;;;;;5227536;22;20374;-60
2023/06/20 07:35:50;;;;;;;3.25;1.52;;;;;;;;;;5227716;22;20025;-60
2023/06/20 07:38:11;;;;;;;2.70;1.30;;;;;;;;;;5227584;22;20272;-60
2023/06/20 07:40:31;;;;;;;3.03;1.80;;;;;;;;;;5227518;22;20031;-60
2023/06/20 07:42:51;;;;;;;9.15;1.33;;;;;;;;;;5227583;22;20030;-60
2023/06/20 07:45:12;;;;;;;9.40;1.92;;;;;;;;;;5227522;22;20145;-61
2023/06/20 07:47:32;;;;;;;4.03;1.40;;;;;;;;;;5227482;22;20065;-60
2023/06/20 07:49:52;;;;;;;4.18;1.52;;;;;;;;;;5227329;22;20069;-61
2023/06/20 07:52:13;;;;;;;4.10;1.40;;;;;;;;;;5227577;22;20023;-60
2023/06/20 07:54:33;;;;;;;1.60;1.40;;;;;;;;;;5227498;22;20050;-60
2023/06/20 07:56:54;;;;;;;5.47;2.05;;;;;;;;;;5201574;22;20022;-60
2023/06/20 07:59:14;;;;;;;6.10;1.80;;;;;;;;;;5227573;22;20077;-60
2023/06/20 08:01:34;;;;;;;1.35;1.25;;;;;;;;;;5227421;22;20368;-60
2023/06/20 08:03:55;;;;;;;1.70;1.52;;;;;;;;;;5227499;22;20033;-61
2023/06/20 08:06:15;;;;;;;3.88;1.30;;;;;;;;;;5227553;22;20142;-60
2023/06/20 08:08:36;;;;;;;5.68;1.10;;;;;;;;;;5227506;22;20060;-60
2023/06/20 08:10:57;;;;;;;1.77;1.52;;;;;;;;;;5227463;22;20025;-60
2023/06/20 08:13:17;;;;;;;1.15;1.10;;;;;;;;;;5227387;22;20025;-60
2023/06/20 08:15:38;;;;;;;1.15;1.10;;;;;;;;;;5227439;22;20382;-60
2023/06/20 08:17:58;;;;;;;2.17;1.10;;;;;;;;;;5227351;22;20054;-60
2023/06/20 08:20:20;;;;;;;1.05;1.00;;;;;;;;;;5204542;22;20073;-60
2023/06/20 08:22:40;;;;;;;1.67;1.00;;;;;;;;;;5227347;22;20021;-61
2023/06/20 08:25:01;;;;;;;1.00;1.00;;;;;;;;;;5227354;22;20338;-60
2023/06/20 08:27:21;;;;;;;2.15;1.10;;;;;;;;;;5227380;22;20057;-60
2023/06/20 08:29:42;;;;;;;1.70;1.20;;;;;;;;;;5227470;22;20026;-60
2023/06/20 08:32:02;;;;;;;2.53;1.00;;;;;;;;;;5227346;22;20022;-60
2023/06/20 08:34:22;;;;;;;1.65;1.10;;;;;;;;;;5227379;22;20030;-60
2023/06/20 08:36:43;;;;;;;1.92;1.17;;;;;;;;;;5227407;22;20211;-60
2023/06/20 08:39:04;;;;;;;1.13;1.13;;;;;;;;;;5227328;22;20026;-60
2023/06/20 08:41:25;;;;;;;1.00;1.00;;;;;;;;;;5227243;22;20364;-60
2023/06/20 08:43:46;;;;;;;1.13;0.98;;;;;;;;;;5204451;22;20062;-58
2023/06/20 08:46:08;;;;;;;1.00;1.00;;;;;;;;;;5224592;22;20053;-58
2023/06/20 08:48:28;;;;;;;1.15;0.93;;;;;;;;;;5225595;22;20057;-57
2023/06/20 08:50:49;;;;;;;1.00;1.00;;;;;;;;;;5227327;22;20026;-58
2023/06/20 08:53:10;;;;;;;1.85;0.90;;;;;;;;;;5227237;22;20022;-58
2023/06/20 08:55:31;;;;;;;0.90;0.90;;;;;;;;;;5227318;22;20092;-58
2023/06/20 08:57:51;;;;;;;1.10;1.00;;;;;;;;;;5227301;22;20049;-58
2023/06/20 09:00:16;;;;;;;1.13;0.90;;;;;;;;;;5226884;22;20030;-57
2023/06/20 09:02:36;;;;;;;1.75;0.90;;;;;;;;;;5227242;22;20038;-58
2023/06/20 09:05:01;;;;;;;0.90;0.90;;;;;;;;;;5227270;22;20091;-58
2023/06/20 09:07:22;;;;;;;0.80;0.80;;;;;;;;;;5227252;22;20042;-57
2023/06/20 09:09:42;;;;;;;1.80;1.13;;;;;;;;;;5227222;22;20382;-58
2023/06/20 09:12:03;;;;;;;2.35;1.00;;;;;;;;;;5227118;22;20030;-57
2023/06/20 09:14:29;;;;;;;0.82;0.80;;;;;;;;;;5227081;22;20075;-57
2023/06/20 09:16:50;;;;;;;2.22;0.90;;;;;;;;;;5235883;22;20026;-58
2023/06/20 09:19:11;;;;;;;3.20;1.20;;;;;;;;;;5227250;22;20065;-58
2023/06/20 09:21:36;;;;;;;1.17;1.17;;;;;;;;;;5227260;22;20026;-58
2023/06/20 09:24:04;;;;;;;1.30;0.85;;;;;;;;;;5227188;22;20041;-59
2023/06/20 09:26:24;;;;;;;1.10;1.10;;;;;;;;;;5227303;22;20023;-58
2023/06/20 09:28:45;;;;;;;1.67;1.25;;;;;;;;;;5227223;22;20033;-58
2023/06/20 09:31:05;;;;;;;0.95;0.80;;;;;;;;;;5227199;22;20021;-58
2023/06/20 09:33:26;;;;;;;1.80;0.90;;;;;;;;;;5227245;22;20227;-58
2023/06/20 09:35:46;;;;;;;0.98;0.98;;;;;;;;;;5227171;22;20074;-58
2023/06/20 09:38:07;;;;;;;0.98;0.80;;;;;;;;;;5200377;22;20057;-58
2023/06/20 09:40:27;;;;;;;0.98;0.80;;;;;;;;;;5227045;22;20042;-58
2023/06/20 09:42:55;;;;;;;1.25;0.90;;;;;;;;;;5227131;22;20060;-58
2023/06/20 09:45:19;;;;;;;0.80;0.80;;;;;;;;;;5227136;22;20025;-57
2023/06/20 09:47:40;;;;;;;0.80;0.80;;;;;;;;;;5227084;22;20087;-58
2023/06/20 09:50:04;;;;;;;2.35;0.80;;;;;;;;;;5227133;22;20060;-58
2023/06/20 09:52:28;;;;;;;0.70;0.70;;;;;;;;;;5227040;22;20058;-58
2023/06/20 09:54:56;;;;;;;0.90;0.70;;;;;;;;;;5226968;22;20062;-58
2023/06/20 09:57:19;;;;;;;0.70;0.70;;;;;;;;;;5226963;22;20363;-58
2023/06/20 09:59:42;;;;;;;0.88;0.77;;;;;;;;;;5227103;22;20061;-58
2023/06/20 10:02:03;;;;;;;0.70;0.70;;;;;;;;;;5227022;22;20029;-58
2023/06/20 10:04:25;;;;;;;1.83;0.77;;;;;;;;;;5227080;22;20349;-58
2023/06/20 10:06:45;;;;;;;0.73;0.73;;;;;;;;;;5226949;22;20079;-58
2023/06/20 10:09:09;;;;;;;1.42;0.70;;;;;;;;;;5226943;22;20022;-58
2023/06/20 10:11:30;;;;;;;0.88;0.70;;;;;;;;;;5226686;22;20065;-58
2023/06/20 10:13:51;;;;;;;0.70;0.70;;;;;;;;;;5226745;22;20071;-58
2023/06/20 10:16:11;;;;;;;1.63;1.25;;;;;;;;;;5226924;22;20030;-57
2023/06/20 10:18:31;;;;;;;2.15;0.80;;;;;;;;;;5225640;22;20203;-57
2023/06/20 10:20:52;;;;;;;0.70;0.70;;;;;;;;;;5226874;22;20336;-57
2023/06/20 10:23:12;;;;;;;0.80;0.80;;;;;;;;;;5226917;22;20069;-57
2023/06/20 10:25:34;;;;;;;1.65;0.80;;;;;;;;;;5226820;22;20023;-58
2023/06/20 10:27:59;;;;;;;1.30;0.70;;;;;;;;;;5226869;22;20361;-57
2023/06/20 10:30:39;;;;;;;1.00;0.70;;;;;;;;;;5226747;22;20033;-58
2023/06/20 10:33:09;;;;;;;0.80;0.80;;;;;;;;;;5226689;22;20050;-58
2023/06/20 10:35:29;;;;;;;1.55;0.80;;;;;;;;;;5226698;22;20057;-58
2023/06/20 10:37:50;;;;;;;1.95;0.70;;;;;;;;;;5226643;22;20021;-57
2023/06/20 10:40:28;;;;;;;0.75;0.75;;;;;;;;;;5226540;22;20027;-57
2023/06/20 10:42:49;;;;;;;0.80;0.80;;;;;;;;;;5226643;22;20050;-58
2023/06/20 10:45:23;;;;;;;0.60;0.60;;;;;;;;;;5226664;22;20069;-57
2023/06/20 10:47:43;;;;;;;0.70;0.70;;;;;;;;;;5226649;22;20034;-57
2023/06/20 10:50:04;;;;;;;0.90;0.82;;;;;;;;;;5226614;22;20021;-58
2023/06/20 10:52:24;;;;;;;0.60;0.60;;;;;;;;;;5226621;22;20076;-58
2023/06/20 10:54:44;;;;;;;0.60;0.60;;;;;;;;;;5226595;22;20050;-58
2023/06/20 10:57:05;;;;;;;2.47;0.80;;;;;;;;;;5226516;22;20083;-58
2023/06/20 10:59:25;;;;;;;1.65;0.70;;;;;;;;;;5226458;22;20022;-58
2023/06/20 11:01:46;;;;;;;0.60;0.60;;;;;;;;;;5226561;22;20117;-58
2023/06/20 11:04:07;;;;;;;0.60;0.60;;;;;;;;;;5226508;22;20041;-58
2023/06/20 11:06:31;;;;;;;0.60;0.60;;;;;;;;;;5226545;22;20049;-58
2023/06/20 11:08:52;;;;;;;0.68;0.68;;;;;;;;;;5226479;22;20035;-58
2023/06/20 11:11:12;;;;;;;0.63;0.63;;;;;;;;;;5226487;22;20022;-58
2023/06/20 11:13:38;;;;;;;0.60;0.60;;;;;;;;;;5226441;22;20301;-58
2023/06/20 11:15:58;;;;;;;0.60;0.60;;;;;;;;;;5226443;22;20088;-58
2023/06/20 11:18:19;;;;;;;0.60;0.60;;;;;;;;;;5226468;22;20060;-58
2023/06/20 11:20:40;;;;;;;1.60;0.70;;;;;;;;;;5226355;22;20042;-58
2023/06/20 11:23:05;;;;;;;0.70;0.70;;;;;;;;;;5226406;22;20023;-57
2023/06/20 11:25:29;;;;;;;0.70;0.70;;;;;;;;;;5227723;22;20093;-58
2023/06/20 11:27:50;;;;;;;0.70;0.70;;;;;;;;;;5227535;22;20075;-58
2023/06/20 11:30:10;;;;;;;0.90;0.60;;;;;;;;;;5227618;22;20026;-57
2023/06/20 11:32:31;;;;;;;1.45;0.60;;;;;;;;;;5227528;22;20206;-57
2023/06/20 11:34:56;;;;;;;1.20;1.08;;;;;;;;;;5227613;22;20218;-57
2023/06/20 11:37:16;;;;;;;0.95;0.70;;;;;;;;;;5227607;22;20102;-58
2023/06/20 11:39:36;;;;;;;0.68;0.60;;;;;;;;;;5227574;22;20054;-58
2023/06/20 11:41:58;;;;;;;0.77;0.60;;;;;;;;;;5227706;22;20341;-58
2023/06/20 11:44:22;;;;;;;0.63;0.63;;;;;;;;;;5227546;22;20057;-57
2023/06/20 11:46:46;;;;;;;0.70;0.70;;;;;;;;;;5205932;22;20215;-57
2023/06/20 11:49:06;;;;;;;1.00;1.00;;;;;;;;;;5227658;22;20329;-58
2023/06/20 11:51:29;;;;;;;4.63;0.60;;;;;;;;;;5227569;22;20022;-58
2023/06/20 11:53:59;;;;;;;2.55;0.70;;;;;;;;;;5227326;22;20026;-58
2023/06/20 11:56:22;;;;;;;0.50;0.50;;;;;;;;;;5227470;22;20109;-58
2023/06/20 11:58:43;;;;;;;0.60;0.60;;;;;;;;;;5227780;22;20064;-58
2023/06/20 12:01:05;;;;;;;1.42;0.60;;;;;;;;;;5227613;22;20022;-57
2023/06/20 12:03:26;;;;;;;0.60;0.60;;;;;;;;;;5227626;22;20022;-58
2023/06/20 12:05:46;;;;;;;0.70;0.70;;;;;;;;;;5227510;22;20034;-58
2023/06/20 12:08:06;;;;;;;0.98;0.70;;;;;;;;;;5227498;22;20021;-57
2023/06/20 12:10:28;;;;;;;0.60;0.60;;;;;;;;;;5227391;22;20076;-57
2023/06/20 12:12:49;;;;;;;;;;;;;;;;;;5227825;22;20075;-58
2023/06/20 12:15:11;;;;;;;0.70;0.60;;;;;;;;;;5227556;22;19918;-57
2023/06/20 12:17:32;;;;;;;1.30;0.60;;;;;;;;;;5227534;22;20334;-58
2023/06/20 12:19:53;;;;;;;1.25;0.60;;;;;;;;;;5227534;22;20037;-57
2023/06/20 12:22:13;;;;;;;1.80;0.70;;;;;;;;;;5227586;22;20026;-57
2023/06/20 12:24:33;;;;;;;0.60;0.60;;;;;;;;;;5227423;22;20273;-57
2023/06/20 12:26:54;;;;;;;2.88;0.80;;;;;;;;;;5227226;22;20022;-57
2023/06/20 12:29:14;;;;;;;1.08;0.80;;;;;;;;;;5227431;22;20056;-57
2023/06/20 12:31:34;;;;;;;0.70;0.70;;;;;;;;;;5227439;22;20091;-57
2023/06/20 12:33:55;;;;;;;0.75;0.60;;;;;;;;;;5227285;22;20060;-57
2023/06/20 12:36:15;;;;;;;2.80;0.63;;;;;;;;;;5226651;22;20064;-58
2023/06/20 12:38:36;;;;;;;0.70;0.70;;;;;;;;;;5227347;22;20041;-57
2023/06/20 12:41:00;;;;;;;0.70;0.70;;;;;;;;;;5227291;22;20075;-58
2023/06/20 12:43:20;;;;;;;0.80;0.70;;;;;;;;;;5227323;22;20069;-58
2023/06/20 12:45:40;;;;;;;0.77;0.70;;;;;;;;;;5227365;22;20022;-58
2023/06/20 12:48:01;;;;;;;1.15;0.70;;;;;;;;;;5227320;22;20042;-58
2023/06/20 12:50:21;;;;;;;0.70;0.70;;;;;;;;;;5227295;22;20218;-57
2023/06/20 12:52:41;;;;;;;0.70;0.70;;;;;;;;;;5227554;22;20027;-57
2023/06/20 12:55:05;;;;;;;0.70;0.70;;;;;;;;;;5227222;22;20076;-58
2023/06/20 12:57:25;;;;;;;0.70;0.70;;;;;;;;;;5227169;22;20100;-58
2023/06/20 12:59:46;;;;;;;1.85;0.73;;;;;;;;;;5227198;22;20262;-60
2023/06/20 13:02:07;;;;;;;0.80;0.80;;;;;;;;;;5227230;22;20050;-58
2023/06/20 13:04:27;;;;;;;2.35;0.88;;;;;;;;;;5227120;22;20238;-58
2023/06/20 13:06:47;;;;;;;1.50;0.65;;;;;;;;;;5227205;22;20065;-58
2023/06/20 13:09:09;;;;;;;1.40;0.70;;;;;;;;;;5227356;22;20037;-57
2023/06/20 13:11:31;;;;;;;1.85;0.75;;;;;;;;;;5204295;22;20061;-57
2023/06/20 13:13:51;;;;;;;2.65;0.70;;;;;;;;;;5227204;22;20033;-58
2023/06/20 13:16:13;;;;;;;1.95;0.60;;;;;;;;;;5224242;22;20060;-58
2023/06/20 13:18:33;;;;;;;1.00;0.60;;;;;;;;;;5235822;22;20027;-58
2023/06/20 13:20:54;;;;;;;0.70;0.70;;;;;;;;;;5227169;22;20022;-58
2023/06/20 13:23:14;;;;;;;1.80;0.50;;;;;;;;;;5227016;22;20325;-58
2023/06/20 13:25:35;;;;;;;4.25;0.68;;;;;;;;;;5227070;22;20060;-58
2023/06/20 13:27:55;;;;;;;1.80;0.70;;;;;;;;;;5204139;22;20042;-58
2023/06/20 13:30:15;;;;;;;0.73;0.68;;;;;;;;;;5227172;22;20337;-58
2023/06/20 13:32:38;;;;;;;1.42;0.60;;;;;;;;;;5227165;22;20103;-57
2023/06/20 13:34:59;;;;;;;0.60;0.60;;;;;;;;;;5227091;22;20034;-58
2023/06/20 13:37:19;;;;;;;1.38;0.70;;;;;;;;;;5227164;22;20304;-58
2023/06/20 13:39:39;;;;;;;0.65;0.60;;;;;;;;;;5227145;22;20022;-58
2023/06/20 13:41:59;;;;;;;1.63;0.70;;;;;;;;;;5227122;22;20026;-58
2023/06/20 13:44:20;;;;;;;0.73;0.70;;;;;;;;;;5227098;22;20026;-58
2023/06/20 13:46:43;;;;;;;2.05;0.60;;;;;;;;;;5226707;22;20052;-57
2023/06/20 13:49:03;;;;;;;;;;;;;;;;;;5227502;22;20041;-58
2023/06/20 13:51:23;;;;;;;0.60;0.60;;;;;;;;;;5227029;22;19964;-58
2023/06/20 13:53:46;;;;;;;0.77;0.70;;;;;;;;;;5226866;22;20332;-57
2023/06/20 13:56:07;;;;;;;0.63;0.63;;;;;;;;;;5227048;22;20021;-57
2023/06/20 13:58:27;;;;;;;0.60;0.60;;;;;;;;;;5226954;22;20095;-58
2023/06/20 14:00:47;;;;;;;1.67;0.70;;;;;;;;;;5226937;22;20022;-57
2023/06/20 14:03:08;;;;;;;0.80;0.80;;;;;;;;;;5227033;22;20027;-57
2023/06/20 14:05:28;;;;;;;1.02;0.80;;;;;;;;;;5226959;22;20062;-58
2023/06/20 14:07:49;;;;;;;2.67;0.70;;;;;;;;;;5227007;22;20022;-58
2023/06/20 14:10:10;;;;;;;0.60;0.60;;;;;;;;;;5227138;22;20050;-58